ENNM/OSY METAR and TAF weather

Enter ICAO airport designator
Station Type Date Time Source
ENNM METAR 2020/06/05 19:50 UTC NOAA

ENNM 051950Z 08016KT CAVOK 16/07 Q0997


Station Type Date Time Source
ENNM Decoded METAR 2020/06/05 19:50 UTC NOAA

Namsos Lufthavn, Norway (ENNM) 64-28N 011-35E 2M
Jun 05, 2020 - 03:50 PM EDT / 2020.06.05 1950 UTC
Wind: from the E (080 degrees) at 18 MPH (16 KT):0
Visibility: greater than 7 mile(s):0
Temperature: 60 F (16 C)
Dew Point: 44 F (7 C)
Relative Humidity: 55%
Pressure (altimeter): 29.44 in. Hg (0997 hPa)
ob: ENNM 051950Z 08016KT CAVOK 16/07 Q0997
cycle: 20

Station Type Date Time Source
ENNM TAF UTC NOAA

Error!

Example: see airport list